»·PEaware :: N153MS KFAT-KVNY

N153MS :: KFAT-KVNY

FLIGHT INFORMATION

Flight Status: Arrived
Operator: Privately registered:
United States
More flights under this callsign
Pilot: Shane N. (25833)
Aircraft: MOONEY M-20K/M ENCORE BRAVO
(M20T)
More flights by this aircraft type
Origin: KFAT Fresno Yosemite Intl
United States
Destination: KVNY Van Nuys
United States
More flights between these airports :: More routes between these airports
Route: +FRAME PONDD TAFTO FIM
File this flight plan on PilotEdge
Remarks:
Altitude:
(Current/Filed)
15,000ft
Speed:
(Current/Filed)
180kts
Departed: 08-Nov-19 08:16 PM
Arrived: 08-Nov-19 09:18 PM
Distance/Time
Traveled:
166nm/1:02
Distance/Time
To Go:
Arrived

Flight Plot

Page will automatically refresh every two minutes.

Flight plan parsing failed; only flown route is shown


Map Options




Map Legend


Flown Route
Filed Route
Departure Airport
Arrival Airport
Navaid (VOR, NDB)
Fix

Horizontal Profiles

Position Reports

Time Latitude Longitude Heading Altitude Ground
Speed
08-Nov-19 20:01 36.778958 -119.731087 124 330ft 0kts
08-Nov-19 20:02 36.778958 -119.731087 124 330ft 0kts
08-Nov-19 20:03 36.778958 -119.731087 124 330ft 0kts
08-Nov-19 20:04 36.778958 -119.731087 124 330ft 0kts
08-Nov-19 20:05 36.778958 -119.731087 124 330ft 0kts
08-Nov-19 20:06 36.778958 -119.731087 124 330ft 0kts
08-Nov-19 20:07 36.778958 -119.731087 124 330ft 0kts
08-Nov-19 20:08 36.778958 -119.731087 124 330ft 0kts
08-Nov-19 20:09 36.778958 -119.731087 124 330ft 0kts
08-Nov-19 20:10 36.778668 -119.728961 125 331ft 18kts
08-Nov-19 20:11 36.776124 -119.724513 124 331ft 23kts
08-Nov-19 20:12 36.772037 -119.716736 106 329ft 22kts
08-Nov-19 20:13 36.769973 -119.711086 40 329ft 0kts
08-Nov-19 20:14 36.770059 -119.710997 37 329ft 10kts
08-Nov-19 20:15 36.783201 -119.733236 301 959ft 113kts
08-Nov-19 20:16 36.800045 -119.766803 300 2481ft 116kts
08-Nov-19 20:17 36.791785 -119.793874 160 3973ft 122kts
08-Nov-19 20:18 36.761536 -119.774499 147 5479ft 124kts
08-Nov-19 20:19 36.731694 -119.754249 146 6952ft 126kts
08-Nov-19 20:20 36.700999 -119.733332 145 8449ft 126kts
08-Nov-19 20:21 36.670124 -119.712276 145 9913ft 129kts
08-Nov-19 20:22 36.629179 -119.684561 148 9997ft 194kts
08-Nov-19 20:23 36.579446 -119.656493 154 9993ft 196kts
08-Nov-19 20:24 36.533210 -119.632376 153 11193ft 166kts
08-Nov-19 20:25 36.492667 -119.611245 152 12580ft 153kts
08-Nov-19 20:26 36.454363 -119.591352 151 13970ft 146kts
08-Nov-19 20:27 36.416380 -119.571636 152 14987ft 163kts
08-Nov-19 20:28 36.369563 -119.547660 153 14990ft 195kts
08-Nov-19 20:29 36.317941 -119.521156 153 14989ft 203kts
08-Nov-19 20:30 36.265289 -119.494078 153 14980ft 206kts
08-Nov-19 20:31 36.212285 -119.466839 153 14979ft 206kts
08-Nov-19 20:32 36.159342 -119.439665 153 14979ft 206kts
08-Nov-19 20:33 36.106308 -119.412484 153 14981ft 206kts
08-Nov-19 20:34 36.053320 -119.385366 153 14985ft 206kts
08-Nov-19 20:35 36.000363 -119.358303 153 14990ft 206kts
08-Nov-19 20:36 35.948207 -119.331692 154 14994ft 206kts
08-Nov-19 20:37 35.899195 -119.306720 154 14994ft 206kts
08-Nov-19 20:38 35.854193 -119.283825 154 14993ft 204kts
08-Nov-19 20:39 35.798509 -119.271591 177 14991ft 208kts
08-Nov-19 20:40 35.740741 -119.275642 179 14992ft 208kts
08-Nov-19 20:41 35.682867 -119.280553 179 14992ft 208kts
08-Nov-19 20:42 35.625014 -119.285519 179 14991ft 208kts
08-Nov-19 20:43 35.567275 -119.290471 179 14991ft 208kts
08-Nov-19 20:44 35.509264 -119.295441 179 14991ft 208kts
08-Nov-19 20:45 35.451322 -119.300396 179 14988ft 209kts
08-Nov-19 20:46 35.393281 -119.305353 179 14984ft 209kts
08-Nov-19 20:47 35.334966 -119.310326 179 14982ft 209kts
08-Nov-19 20:48 35.276775 -119.315283 179 14982ft 210kts
08-Nov-19 20:49 35.218628 -119.320228 179 14982ft 210kts
08-Nov-19 20:50 35.160495 -119.322620 162 14984ft 205kts
08-Nov-19 20:51 35.107739 -119.297173 152 14982ft 203kts
08-Nov-19 20:52 35.056194 -119.268658 152 14982ft 203kts
08-Nov-19 20:53 35.004725 -119.239932 152 14981ft 203kts
08-Nov-19 20:54 34.952932 -119.211044 152 14981ft 204kts
08-Nov-19 20:55 34.901350 -119.182313 152 14981ft 204kts
08-Nov-19 20:56 34.851381 -119.154517 152 14974ft 205kts
08-Nov-19 20:57 34.799242 -119.125558 152 14953ft 205kts
08-Nov-19 20:58 34.747162 -119.096671 152 14932ft 205kts
08-Nov-19 20:59 34.695857 -119.068245 152 15000ft 203kts
08-Nov-19 21:00 34.643936 -119.039538 152 14834ft 205kts
08-Nov-19 21:01 34.593929 -119.011882 152 15008ft 201kts
08-Nov-19 21:02 34.542517 -118.983533 152 15002ft 203kts
08-Nov-19 21:03 34.490772 -118.955073 152 14396ft 202kts
08-Nov-19 21:04 34.446431 -118.920042 98 13571ft 192kts
08-Nov-19 21:05 34.449281 -118.856123 87 12715ft 187kts
08-Nov-19 21:06 34.452853 -118.793985 86 11711ft 184kts
08-Nov-19 21:07 34.455755 -118.736269 86 10767ft 182kts
08-Nov-19 21:09 34.457864 -118.674799 98 9750ft 183kts
08-Nov-19 21:10 34.439621 -118.616976 108 8741ft 184kts
08-Nov-19 21:11 34.421470 -118.559565 118 7724ft 180kts
08-Nov-19 21:12 34.385510 -118.518124 160 6707ft 183kts
08-Nov-19 21:13 34.341388 -118.504325 169 5685ft 137kts
08-Nov-19 21:14 34.304639 -118.498774 178 4317ft 127kts
08-Nov-19 21:15 34.272189 -118.496320 176 2523ft 97kts
08-Nov-19 21:16 34.250062 -118.494059 173 1742ft 83kts
08-Nov-19 21:17 34.224472 -118.491724 174 1101ft 89kts
08-Nov-19 21:18 34.206379 -118.490032 179 771ft 29kts
08-Nov-19 21:19 34.203381 -118.490786 191 763ft 0kts
08-Nov-19 21:20 34.203381 -118.490786 191 763ft 0kts
08-Nov-19 21:21 34.203272 -118.491448 343 763ft 0kts
08-Nov-19 21:22 34.203272 -118.491448 343 763ft 0kts
08-Nov-19 21:23 34.203272 -118.491448 343 763ft 0kts
08-Nov-19 21:24 34.203272 -118.491448 343 763ft 0kts
08-Nov-19 21:25 34.203272 -118.491448 343 763ft 0kts
08-Nov-19 21:26 34.203272 -118.491448 343 763ft 0kts
08-Nov-19 21:27 34.203272 -118.491448 343 763ft 0kts
08-Nov-19 21:27 34.203272 -118.491448 343 763ft 0kts

Navigation Log

Ident Type
Flight plan parsing failed, navigation log unavailable